sensor_id;sensor_type;location;lat;lon;timestamp;pressure;altitude;pressure_sealevel;temperature;humidity
19777;BME280;10047;42.490;26.012;2023-08-12T00:00:46;100650.88;;;22.61;100.00
19777;BME280;10047;42.490;26.012;2023-08-12T00:03:12;100646.78;;;22.57;100.00
19777;BME280;10047;42.490;26.012;2023-08-12T00:05:37;100593.06;;;22.33;100.00
19777;BME280;10047;42.490;26.012;2023-08-12T00:08:05;100611.88;;;22.50;100.00
19777;BME280;10047;42.490;26.012;2023-08-12T00:10:31;100582.69;;;22.08;100.00
19777;BME280;10047;42.490;26.012;2023-08-12T00:12:56;100542.84;;;21.97;100.00
19777;BME280;10047;42.490;26.012;2023-08-12T00:15:22;100634.75;;;22.43;100.00
19777;BME280;10047;42.490;26.012;2023-08-12T00:17:47;100579.78;;;22.13;100.00
19777;BME280;10047;42.490;26.012;2023-08-12T00:20:12;100554.28;;;21.94;100.00
19777;BME280;10047;42.490;26.012;2023-08-12T00:22:38;100571.81;;;21.77;100.00
19777;BME280;10047;42.490;26.012;2023-08-12T00:25:06;100607.91;;;22.31;100.00
19777;BME280;10047;42.490;26.012;2023-08-12T00:27:32;100544.22;;;21.76;100.00
19777;BME280;10047;42.490;26.012;2023-08-12T00:29:57;100529.72;;;21.73;100.00
19777;BME280;10047;42.490;26.012;2023-08-12T00:32:22;100531.16;;;21.65;100.00
19777;BME280;10047;42.490;26.012;2023-08-12T00:34:48;100587.72;;;21.97;100.00
19777;BME280;10047;42.490;26.012;2023-08-12T00:37:13;100476.66;;;21.41;100.00
19777;BME280;10047;42.490;26.012;2023-08-12T00:39:39;100546.06;;;21.88;100.00
19777;BME280;10047;42.490;26.012;2023-08-12T00:42:04;100523.09;;;21.69;100.00
19777;BME280;10047;42.490;26.012;2023-08-12T00:44:30;100535.25;;;21.81;100.00
19777;BME280;10047;42.490;26.012;2023-08-12T00:46:55;100600.50;;;22.00;100.00
19777;BME280;10047;42.490;26.012;2023-08-12T00:49:22;100525.34;;;21.61;100.00
19777;BME280;10047;42.490;26.012;2023-08-12T00:51:49;100582.34;;;22.00;100.00
19777;BME280;10047;42.490;26.012;2023-08-12T00:54:16;100575.44;;;22.26;100.00
19777;BME280;10047;42.490;26.012;2023-08-12T00:56:42;100486.44;;;21.63;100.00
19777;BME280;10047;42.490;26.012;2023-08-12T00:59:09;100531.16;;;21.65;100.00
19777;BME280;10047;42.490;26.012;2023-08-12T01:01:36;100540.91;;;21.74;100.00
19777;BME280;10047;42.490;26.012;2023-08-12T01:04:03;100547.66;;;21.76;100.00
19777;BME280;10047;42.490;26.012;2023-08-12T01:06:29;100604.53;;;22.04;100.00
19777;BME280;10047;42.490;26.012;2023-08-12T01:08:54;100427.53;;;21.27;100.00
19777;BME280;10047;42.490;26.012;2023-08-12T01:11:34;100571.66;;;22.05;100.00
19777;BME280;10047;42.490;26.012;2023-08-12T01:14:11;100548.88;;;21.97;100.00
19777;BME280;10047;42.490;26.012;2023-08-12T01:16:40;100618.59;;;22.39;100.00
19777;BME280;10047;42.490;26.012;2023-08-12T01:19:11;100633.19;;;22.40;100.00
19777;BME280;10047;42.490;26.012;2023-08-12T01:21:44;100624.28;;;22.32;100.00
19777;BME280;10047;42.490;26.012;2023-08-12T01:24:10;100623.53;;;22.17;100.00
19777;BME280;10047;42.490;26.012;2023-08-12T01:26:35;100619.81;;;22.47;100.00
19777;BME280;10047;42.490;26.012;2023-08-12T01:29:00;100550.75;;;21.69;100.00
19777;BME280;10047;42.490;26.012;2023-08-12T01:31:32;100558.41;;;21.70;100.00
19777;BME280;10047;42.490;26.012;2023-08-12T01:36:31;100594.50;;;22.25;100.00
19777;BME280;10047;42.490;26.012;2023-08-12T01:39:00;100586.13;;;22.21;100.00
19777;BME280;10047;42.490;26.012;2023-08-12T01:41:26;100603.47;;;22.07;100.00
19777;BME280;10047;42.490;26.012;2023-08-12T01:43:52;100631.84;;;22.35;100.00
19777;BME280;10047;42.490;26.012;2023-08-12T01:46:17;100615.28;;;22.37;100.00
19777;BME280;10047;42.490;26.012;2023-08-12T01:48:43;100626.81;;;22.59;100.00
19777;BME280;10047;42.490;26.012;2023-08-12T01:51:08;100674.75;;;22.66;100.00
19777;BME280;10047;42.490;26.012;2023-08-12T01:53:34;100636.09;;;22.49;100.00
19777;BME280;10047;42.490;26.012;2023-08-12T01:55:59;100700.78;;;23.02;100.00
19777;BME280;10047;42.490;26.012;2023-08-12T01:58:25;100649.56;;;22.68;100.00
19777;BME280;10047;42.490;26.012;2023-08-12T02:00:54;100662.34;;;22.57;100.00
19777;BME280;10047;42.490;26.012;2023-08-12T02:03:19;100656.38;;;22.69;100.00
19777;BME280;10047;42.490;26.012;2023-08-12T02:05:44;100720.00;;;22.99;100.00
19777;BME280;10047;42.490;26.012;2023-08-12T02:08:10;100620.88;;;22.44;100.00
19777;BME280;10047;42.490;26.012;2023-08-12T02:10:35;100716.56;;;22.86;100.00
19777;BME280;10047;42.490;26.012;2023-08-12T02:13:02;100719.25;;;22.85;100.00
19777;BME280;10047;42.490;26.012;2023-08-12T02:15:28;100664.31;;;22.53;100.00
19777;BME280;10047;42.490;26.012;2023-08-12T02:17:53;100660.78;;;22.41;100.00
19777;BME280;10047;42.490;26.012;2023-08-12T02:20:19;100712.69;;;22.67;100.00
19777;BME280;10047;42.490;26.012;2023-08-12T02:22:44;100662.44;;;22.42;100.00
19777;BME280;10047;42.490;26.012;2023-08-12T02:25:09;100615.97;;;22.27;100.00
19777;BME280;10047;42.490;26.012;2023-08-12T02:27:35;100671.66;;;22.34;100.00
19777;BME280;10047;42.490;26.012;2023-08-12T02:30:00;100696.78;;;22.46;100.00
19777;BME280;10047;42.490;26.012;2023-08-12T02:32:26;100741.84;;;22.70;100.00
19777;BME280;10047;42.490;26.012;2023-08-12T02:34:51;100685.09;;;22.26;100.00
19777;BME280;10047;42.490;26.012;2023-08-12T02:37:17;100758.47;;;22.68;100.00
19777;BME280;10047;42.490;26.012;2023-08-12T02:39:42;100744.94;;;22.63;100.00
19777;BME280;10047;42.490;26.012;2023-08-12T02:42:07;100724.25;;;22.49;100.00
19777;BME280;10047;42.490;26.012;2023-08-12T02:44:33;100707.94;;;22.34;100.00
19777;BME280;10047;42.490;26.012;2023-08-12T02:46:58;100757.03;;;22.50;100.00
19777;BME280;10047;42.490;26.012;2023-08-12T02:49:24;100749.44;;;22.47;100.00
19777;BME280;10047;42.490;26.012;2023-08-12T02:51:49;100761.38;;;22.49;100.00
19777;BME280;10047;42.490;26.012;2023-08-12T02:54:14;100680.19;;;22.09;100.00
19777;BME280;10047;42.490;26.012;2023-08-12T02:56:40;100748.00;;;22.55;100.00
19777;BME280;10047;42.490;26.012;2023-08-12T02:59:05;100705.63;;;22.29;100.00
19777;BME280;10047;42.490;26.012;2023-08-12T03:01:31;100779.94;;;22.70;100.00
19777;BME280;10047;42.490;26.012;2023-08-12T03:03:56;100779.94;;;22.82;100.00
19777;BME280;10047;42.490;26.012;2023-08-12T03:06:22;100730.78;;;22.54;100.00
19777;BME280;10047;42.490;26.012;2023-08-12T03:08:47;100748.69;;;22.44;100.00
19777;BME280;10047;42.490;26.012;2023-08-12T03:11:12;100788.69;;;22.40;100.00
19777;BME280;10047;42.490;26.012;2023-08-12T03:13:38;100767.00;;;22.56;100.00
19777;BME280;10047;42.490;26.012;2023-08-12T03:16:03;100716.91;;;22.16;100.00
19777;BME280;10047;42.490;26.012;2023-08-12T03:18:29;100743.50;;;22.44;100.00
19777;BME280;10047;42.490;26.012;2023-08-12T03:20:54;100806.09;;;22.79;100.00
19777;BME280;10047;42.490;26.012;2023-08-12T03:23:20;100745.34;;;22.30;100.00
19777;BME280;10047;42.490;26.012;2023-08-12T03:25:47;100779.28;;;22.66;100.00
19777;BME280;10047;42.490;26.012;2023-08-12T03:28:13;100819.06;;;22.92;100.00
19777;BME280;10047;42.490;26.012;2023-08-12T03:30:39;100811.50;;;22.89;100.00
19777;BME280;10047;42.490;26.012;2023-08-12T03:33:04;100728.56;;;22.35;100.00
19777;BME280;10047;42.490;26.012;2023-08-12T03:35:30;100771.69;;;22.10;100.00
19777;BME280;10047;42.490;26.012;2023-08-12T03:37:55;100757.50;;;21.89;100.00
19777;BME280;10047;42.490;26.012;2023-08-12T03:40:21;100789.06;;;22.22;100.00
19777;BME280;10047;42.490;26.012;2023-08-12T03:42:46;100782.72;;;21.99;100.00
19777;BME280;10047;42.490;26.012;2023-08-12T03:45:11;100736.84;;;21.73;100.00
19777;BME280;10047;42.490;26.012;2023-08-12T03:47:37;100760.53;;;21.81;100.00
19777;BME280;10047;42.490;26.012;2023-08-12T03:50:02;100697.13;;;21.32;100.00
19777;BME280;10047;42.490;26.012;2023-08-12T03:52:28;100719.69;;;21.58;100.00
19777;BME280;10047;42.490;26.012;2023-08-12T03:54:53;100795.03;;;21.96;100.00
19777;BME280;10047;42.490;26.012;2023-08-12T03:57:19;100698.50;;;21.66;100.00
19777;BME280;10047;42.490;26.012;2023-08-12T03:59:44;100808.47;;;22.29;100.00
19777;BME280;10047;42.490;26.012;2023-08-12T04:02:10;100822.25;;;22.29;100.00
19777;BME280;10047;42.490;26.012;2023-08-12T04:04:35;100823.25;;;22.00;100.00
19777;BME280;10047;42.490;26.012;2023-08-12T04:07:01;100753.84;;;22.05;100.00
19777;BME280;10047;42.490;26.012;2023-08-12T04:09:26;100715.78;;;21.65;100.00
19777;BME280;10047;42.490;26.012;2023-08-12T04:11:52;100756.66;;;21.88;100.00
19777;BME280;10047;42.490;26.012;2023-08-12T04:14:17;100767.84;;;21.89;100.00
19777;BME280;10047;42.490;26.012;2023-08-12T04:16:42;100815.06;;;22.20;100.00
19777;BME280;10047;42.490;26.012;2023-08-12T04:19:08;100750.53;;;21.75;100.00
19777;BME280;10047;42.490;26.012;2023-08-12T04:21:33;100815.47;;;22.14;100.00
19777;BME280;10047;42.490;26.012;2023-08-12T04:23:59;100756.28;;;21.94;100.00
19777;BME280;10047;42.490;26.012;2023-08-12T04:26:24;100838.81;;;22.27;100.00
19777;BME280;10047;42.490;26.012;2023-08-12T04:28:49;100724.19;;;21.69;100.00
19777;BME280;10047;42.490;26.012;2023-08-12T04:31:15;100756.03;;;22.11;100.00
19777;BME280;10047;42.490;26.012;2023-08-12T04:33:40;100775.88;;;22.25;100.00
19777;BME280;10047;42.490;26.012;2023-08-12T04:36:06;100828.56;;;22.25;100.00
19777;BME280;10047;42.490;26.012;2023-08-12T04:38:32;100799.84;;;22.28;100.00
19777;BME280;10047;42.490;26.012;2023-08-12T04:40:57;100844.19;;;22.38;100.00
19777;BME280;10047;42.490;26.012;2023-08-12T04:43:23;100830.84;;;22.44;100.00
19777;BME280;10047;42.490;26.012;2023-08-12T04:45:48;100775.47;;;22.18;100.00
19777;BME280;10047;42.490;26.012;2023-08-12T04:48:14;100783.66;;;22.25;100.00
19777;BME280;10047;42.490;26.012;2023-08-12T04:50:41;100842.75;;;22.61;100.00
19777;BME280;10047;42.490;26.012;2023-08-12T04:53:06;100849.22;;;22.68;100.00
19777;BME280;10047;42.490;26.012;2023-08-12T04:55:31;100820.53;;;22.83;100.00
19777;BME280;10047;42.490;26.012;2023-08-12T04:57:57;100849.81;;;22.98;100.00
19777;BME280;10047;42.490;26.012;2023-08-12T05:00:23;100857.31;;;23.02;100.00
19777;BME280;10047;42.490;26.012;2023-08-12T05:02:49;100796.38;;;23.08;100.00
19777;BME280;10047;42.490;26.012;2023-08-12T05:05:16;100868.19;;;23.59;100.00
19777;BME280;10047;42.490;26.012;2023-08-12T05:07:41;100803.59;;;23.42;100.00
19777;BME280;10047;42.490;26.012;2023-08-12T05:10:07;100755.91;;;23.18;100.00
19777;BME280;10047;42.490;26.012;2023-08-12T05:12:33;100877.34;;;23.90;100.00
19777;BME280;10047;42.490;26.012;2023-08-12T05:14:58;100789.47;;;23.46;100.00
19777;BME280;10047;42.490;26.012;2023-08-12T05:17:23;100819.44;;;24.00;100.00
19777;BME280;10047;42.490;26.012;2023-08-12T05:19:49;100845.63;;;23.97;100.00
19777;BME280;10047;42.490;26.012;2023-08-12T05:22:16;100883.25;;;24.30;100.00
19777;BME280;10047;42.490;26.012;2023-08-12T05:24:41;100888.19;;;24.81;100.00
19777;BME280;10047;42.490;26.012;2023-08-12T05:27:07;100831.09;;;24.44;100.00
19777;BME280;10047;42.490;26.012;2023-08-12T05:29:32;100828.06;;;24.50;100.00
19777;BME280;10047;42.490;26.012;2023-08-12T05:31:58;100894.00;;;24.49;100.00
19777;BME280;10047;42.490;26.012;2023-08-12T05:34:23;100918.59;;;24.81;100.00
19777;BME280;10047;42.490;26.012;2023-08-12T05:36:49;100896.28;;;25.24;100.00
19777;BME280;10047;42.490;26.012;2023-08-12T05:39:14;100837.69;;;24.84;100.00
19777;BME280;10047;42.490;26.012;2023-08-12T05:41:41;100876.94;;;24.81;100.00
19777;BME280;10047;42.490;26.012;2023-08-12T05:44:06;100839.63;;;25.39;100.00
19777;BME280;10047;42.490;26.012;2023-08-12T05:46:32;100864.91;;;25.71;100.00
19777;BME280;10047;42.490;26.012;2023-08-12T05:48:57;100864.69;;;25.74;100.00
19777;BME280;10047;42.490;26.012;2023-08-12T05:51:23;100893.00;;;26.01;100.00
19777;BME280;10047;42.490;26.012;2023-08-12T05:53:49;100897.72;;;25.85;100.00
19777;BME280;10047;42.490;26.012;2023-08-12T05:56:14;100895.25;;;26.06;100.00
19777;BME280;10047;42.490;26.012;2023-08-12T05:58:40;100881.03;;;25.88;100.00
19777;BME280;10047;42.490;26.012;2023-08-12T06:01:05;100887.47;;;26.28;100.00
19777;BME280;10047;42.490;26.012;2023-08-12T06:03:31;100873.84;;;26.13;100.00
19777;BME280;10047;42.490;26.012;2023-08-12T06:05:56;100927.41;;;26.39;100.00
19777;BME280;10047;42.490;26.012;2023-08-12T06:08:22;100912.28;;;26.65;100.00
19777;BME280;10047;42.490;26.012;2023-08-12T06:10:47;100944.84;;;26.28;100.00
19777;BME280;10047;42.490;26.012;2023-08-12T06:13:13;100948.28;;;26.39;100.00
19777;BME280;10047;42.490;26.012;2023-08-12T06:15:38;100933.56;;;26.72;100.00
19777;BME280;10047;42.490;26.012;2023-08-12T06:18:04;100960.22;;;26.53;100.00
19777;BME280;10047;42.490;26.012;2023-08-12T06:20:30;100968.94;;;27.07;100.00
19777;BME280;10047;42.490;26.012;2023-08-12T06:22:55;100968.50;;;27.34;100.00
19777;BME280;10047;42.490;26.012;2023-08-12T06:25:20;100907.22;;;27.27;100.00
19777;BME280;10047;42.490;26.012;2023-08-12T06:27:46;100936.25;;;26.59;100.00
19777;BME280;10047;42.490;26.012;2023-08-12T06:30:13;100934.00;;;27.08;100.00
19777;BME280;10047;42.490;26.012;2023-08-12T06:32:39;100925.69;;;27.14;100.00
19777;BME280;10047;42.490;26.012;2023-08-12T06:35:05;100932.53;;;27.88;100.00
19777;BME280;10047;42.490;26.012;2023-08-12T06:37:30;100977.94;;;27.46;100.00
19777;BME280;10047;42.490;26.012;2023-08-12T06:39:56;100995.16;;;27.90;100.00
19777;BME280;10047;42.490;26.012;2023-08-12T06:42:22;100997.97;;;27.57;100.00
19777;BME280;10047;42.490;26.012;2023-08-12T06:44:54;100941.53;;;27.02;100.00
19777;BME280;10047;42.490;26.012;2023-08-12T06:47:20;101005.69;;;27.58;100.00
19777;BME280;10047;42.490;26.012;2023-08-12T06:49:45;101007.25;;;28.02;100.00
19777;BME280;10047;42.490;26.012;2023-08-12T06:52:11;100971.19;;;27.32;100.00
19777;BME280;10047;42.490;26.012;2023-08-12T06:54:37;100974.91;;;28.33;100.00
19777;BME280;10047;42.490;26.012;2023-08-12T06:57:02;101002.81;;;27.82;100.00
19777;BME280;10047;42.490;26.012;2023-08-12T06:59:28;100985.69;;;27.89;100.00
19777;BME280;10047;42.490;26.012;2023-08-12T07:01:53;100989.63;;;28.24;100.00
19777;BME280;10047;42.490;26.012;2023-08-12T07:04:19;100931.47;;;27.70;100.00
19777;BME280;10047;42.490;26.012;2023-08-12T07:06:44;100992.63;;;28.20;100.00
19777;BME280;10047;42.490;26.012;2023-08-12T07:09:10;100920.38;;;28.38;100.00
19777;BME280;10047;42.490;26.012;2023-08-12T07:11:35;100982.91;;;28.11;100.00
19777;BME280;10047;42.490;26.012;2023-08-12T07:14:00;100917.84;;;28.67;100.00
19777;BME280;10047;42.490;26.012;2023-08-12T07:16:26;100940.56;;;27.76;100.00
19777;BME280;10047;42.490;26.012;2023-08-12T07:18:51;100980.63;;;29.06;100.00
19777;BME280;10047;42.490;26.012;2023-08-12T07:21:16;100958.38;;;28.33;100.00
19777;BME280;10047;42.490;26.012;2023-08-12T07:23:42;100963.81;;;29.38;100.00
19777;BME280;10047;42.490;26.012;2023-08-12T07:26:07;100932.78;;;29.14;100.00
19777;BME280;10047;42.490;26.012;2023-08-12T07:28:33;100942.41;;;28.75;100.00
19777;BME280;10047;42.490;26.012;2023-08-12T07:31:03;100947.19;;;28.61;100.00
19777;BME280;10047;42.490;26.012;2023-08-12T07:33:28;100921.34;;;29.05;100.00
19777;BME280;10047;42.490;26.012;2023-08-12T07:35:54;100970.03;;;29.46;100.00
19777;BME280;10047;42.490;26.012;2023-08-12T07:38:19;100960.59;;;29.91;100.00
19777;BME280;10047;42.490;26.012;2023-08-12T07:40:44;100929.50;;;29.31;100.00
19777;BME280;10047;42.490;26.012;2023-08-12T07:43:10;100947.78;;;28.83;100.00
19777;BME280;10047;42.490;26.012;2023-08-12T07:45:35;100942.19;;;29.17;100.00
19777;BME280;10047;42.490;26.012;2023-08-12T07:48:01;100984.63;;;29.10;100.00
19777;BME280;10047;42.490;26.012;2023-08-12T07:50:26;100924.50;;;28.99;100.00
19777;BME280;10047;42.490;26.012;2023-08-12T07:52:52;100910.06;;;29.15;100.00
19777;BME280;10047;42.490;26.012;2023-08-12T07:55:18;100981.38;;;29.28;100.00
19777;BME280;10047;42.490;26.012;2023-08-12T07:57:44;100966.97;;;29.89;100.00
19777;BME280;10047;42.490;26.012;2023-08-12T08:00:10;100933.59;;;29.34;100.00
19777;BME280;10047;42.490;26.012;2023-08-12T08:02:37;100912.09;;;29.30;100.00
19777;BME280;10047;42.490;26.012;2023-08-12T08:05:03;100957.19;;;29.62;100.00
19777;BME280;10047;42.490;26.012;2023-08-12T08:07:29;100974.16;;;29.20;100.00
19777;BME280;10047;42.490;26.012;2023-08-12T08:09:54;100963.81;;;29.76;100.00
19777;BME280;10047;42.490;26.012;2023-08-12T08:12:20;100887.44;;;29.88;100.00
19777;BME280;10047;42.490;26.012;2023-08-12T08:14:45;100966.84;;;29.62;100.00
19777;BME280;10047;42.490;26.012;2023-08-12T08:17:10;100958.25;;;29.69;100.00
19777;BME280;10047;42.490;26.012;2023-08-12T08:19:36;100917.41;;;30.13;100.00
19777;BME280;10047;42.490;26.012;2023-08-12T08:22:01;100898.91;;;29.68;100.00
19777;BME280;10047;42.490;26.012;2023-08-12T08:24:28;100939.50;;;30.20;100.00
19777;BME280;10047;42.490;26.012;2023-08-12T08:26:53;100944.16;;;30.26;100.00
19777;BME280;10047;42.490;26.012;2023-08-12T08:29:19;100952.09;;;30.07;100.00
19777;BME280;10047;42.490;26.012;2023-08-12T08:31:44;100896.41;;;30.67;100.00
19777;BME280;10047;42.490;26.012;2023-08-12T08:34:09;100917.97;;;29.70;100.00
19777;BME280;10047;42.490;26.012;2023-08-12T08:36:35;100941.16;;;30.75;100.00
19777;BME280;10047;42.490;26.012;2023-08-12T08:39:01;100931.09;;;30.07;100.00
19777;BME280;10047;42.490;26.012;2023-08-12T08:41:30;100875.88;;;30.36;100.00
19777;BME280;10047;42.490;26.012;2023-08-12T08:44:01;100877.41;;;30.73;100.00
19777;BME280;10047;42.490;26.012;2023-08-12T08:46:26;100928.56;;;30.25;100.00
19777;BME280;10047;42.490;26.012;2023-08-12T08:48:52;100838.00;;;29.84;100.00
19777;BME280;10047;42.490;26.012;2023-08-12T08:51:19;100838.75;;;31.44;100.00
19777;BME280;10047;42.490;26.012;2023-08-12T08:53:45;100888.00;;;31.17;100.00
19777;BME280;10047;42.490;26.012;2023-08-12T08:56:11;100857.03;;;30.85;100.00
19777;BME280;10047;42.490;26.012;2023-08-12T08:58:40;100863.13;;;30.86;100.00
19777;BME280;10047;42.490;26.012;2023-08-12T09:01:06;100890.72;;;31.76;100.00
19777;BME280;10047;42.490;26.012;2023-08-12T09:03:35;100889.88;;;31.07;100.00
19777;BME280;10047;42.490;26.012;2023-08-12T09:06:02;100891.44;;;31.35;100.00
19777;BME280;10047;42.490;26.012;2023-08-12T09:08:29;100885.66;;;31.31;100.00
19777;BME280;10047;42.490;26.012;2023-08-12T09:10:57;100873.00;;;31.35;100.00
19777;BME280;10047;42.490;26.012;2023-08-12T09:13:24;100880.75;;;30.93;100.00
19777;BME280;10047;42.490;26.012;2023-08-12T09:15:50;100870.16;;;31.28;100.00
19777;BME280;10047;42.490;26.012;2023-08-12T09:18:16;100871.28;;;31.26;100.00
19777;BME280;10047;42.490;26.012;2023-08-12T09:20:42;100858.03;;;31.87;100.00
19777;BME280;10047;42.490;26.012;2023-08-12T09:23:09;100876.19;;;31.21;100.00
19777;BME280;10047;42.490;26.012;2023-08-12T09:25:41;100891.75;;;30.79;100.00
19777;BME280;10047;42.490;26.012;2023-08-12T09:28:09;100851.44;;;32.16;100.00
19777;BME280;10047;42.490;26.012;2023-08-12T09:30:34;100866.41;;;32.16;100.00
19777;BME280;10047;42.490;26.012;2023-08-12T09:33:01;100767.34;;;31.31;100.00
19777;BME280;10047;42.490;26.012;2023-08-12T09:35:36;100822.28;;;31.17;100.00
19777;BME280;10047;42.490;26.012;2023-08-12T09:38:12;100864.41;;;31.76;100.00
19777;BME280;10047;42.490;26.012;2023-08-12T09:40:38;100876.41;;;31.45;100.00
19777;BME280;10047;42.490;26.012;2023-08-12T09:43:04;100833.50;;;31.78;100.00
19777;BME280;10047;42.490;26.012;2023-08-12T09:45:31;100802.91;;;31.18;100.00
19777;BME280;10047;42.490;26.012;2023-08-12T09:47:57;100850.91;;;31.20;100.00
19777;BME280;10047;42.490;26.012;2023-08-12T09:50:23;100858.03;;;31.53;100.00
19777;BME280;10047;42.490;26.012;2023-08-12T09:52:51;100852.75;;;31.79;100.00
19777;BME280;10047;42.490;26.012;2023-08-12T09:55:17;100793.19;;;30.93;100.00
19777;BME280;10047;42.490;26.012;2023-08-12T09:57:44;100812.81;;;31.49;100.00
19777;BME280;10047;42.490;26.012;2023-08-12T10:00:11;100816.25;;;31.24;100.00
19777;BME280;10047;42.490;26.012;2023-08-12T10:02:45;100825.31;;;31.30;100.00
19777;BME280;10047;42.490;26.012;2023-08-12T10:05:13;100833.19;;;32.31;100.00
19777;BME280;10047;42.490;26.012;2023-08-12T10:07:41;100832.38;;;32.30;100.00
19777;BME280;10047;42.490;26.012;2023-08-12T10:10:06;100784.72;;;31.58;100.00
19777;BME280;10047;42.490;26.012;2023-08-12T10:12:33;100776.91;;;31.74;100.00
19777;BME280;10047;42.490;26.012;2023-08-12T10:15:00;100820.34;;;31.78;100.00
19777;BME280;10047;42.490;26.012;2023-08-12T10:17:25;100773.00;;;31.19;100.00
19777;BME280;10047;42.490;26.012;2023-08-12T10:19:55;100781.88;;;31.77;100.00
19777;BME280;10047;42.490;26.012;2023-08-12T10:22:22;100770.78;;;31.66;100.00
19777;BME280;10047;42.490;26.012;2023-08-12T10:24:49;100771.50;;;31.16;100.00
19777;BME280;10047;42.490;26.012;2023-08-12T10:27:17;100827.03;;;31.65;100.00
19777;BME280;10047;42.490;26.012;2023-08-12T10:29:43;100742.09;;;31.13;100.00
19777;BME280;10047;42.490;26.012;2023-08-12T10:32:09;100721.63;;;31.66;100.00
19777;BME280;10047;42.490;26.012;2023-08-12T10:34:34;100759.38;;;31.91;100.00
19777;BME280;10047;42.490;26.012;2023-08-12T10:37:02;100826.06;;;31.40;100.00
19777;BME280;10047;42.490;26.012;2023-08-12T10:39:29;100756.69;;;31.75;100.00
19777;BME280;10047;42.490;26.012;2023-08-12T10:41:57;100823.47;;;32.23;100.00
19777;BME280;10047;42.490;26.012;2023-08-12T10:44:27;100805.06;;;32.31;100.00
19777;BME280;10047;42.490;26.012;2023-08-12T10:46:53;100817.13;;;31.58;100.00
19777;BME280;10047;42.490;26.012;2023-08-12T10:49:21;100791.69;;;30.72;100.00
19777;BME280;10047;42.490;26.012;2023-08-12T10:51:53;100815.34;;;32.51;100.00
19777;BME280;10047;42.490;26.012;2023-08-12T10:54:23;100749.75;;;32.23;100.00
19777;BME280;10047;42.490;26.012;2023-08-12T10:57:08;100818.84;;;32.17;100.00
19777;BME280;10047;42.490;26.012;2023-08-12T11:05:06;100851.16;;;30.73;100.00
19777;BME280;10047;42.490;26.012;2023-08-12T11:07:39;100816.56;;;32.22;100.00
19777;BME280;10047;42.490;26.012;2023-08-12T11:10:13;100820.03;;;31.81;100.00
19777;BME280;10047;42.490;26.012;2023-08-12T11:12:40;100784.81;;;31.15;100.00
19777;BME280;10047;42.490;26.012;2023-08-12T11:15:06;100797.47;;;32.12;100.00
19777;BME280;10047;42.490;26.012;2023-08-12T11:17:39;100759.97;;;31.69;100.00
19777;BME280;10047;42.490;26.012;2023-08-12T11:20:06;100791.09;;;32.95;100.00
19777;BME280;10047;42.490;26.012;2023-08-12T11:22:42;100767.66;;;32.04;100.00
19777;BME280;10047;42.490;26.012;2023-08-12T11:25:09;100761.25;;;31.65;100.00
19777;BME280;10047;42.490;26.012;2023-08-12T11:27:44;100778.75;;;32.48;100.00
19777;BME280;10047;42.490;26.012;2023-08-12T11:30:14;100808.47;;;32.16;100.00
19777;BME280;10047;42.490;26.012;2023-08-12T11:32:45;100827.75;;;31.23;100.00
19777;BME280;10047;42.490;26.012;2023-08-12T11:35:11;100820.72;;;31.49;100.00
19777;BME280;10047;42.490;26.012;2023-08-12T11:37:38;100762.53;;;31.52;100.00
19777;BME280;10047;42.490;26.012;2023-08-12T11:40:05;100751.03;;;32.11;100.00
19777;BME280;10047;42.490;26.012;2023-08-12T11:42:33;100814.53;;;32.00;100.00
19777;BME280;10047;42.490;26.012;2023-08-12T11:44:59;100825.19;;;31.31;100.00
19777;BME280;10047;42.490;26.012;2023-08-12T11:47:24;100798.03;;;30.44;100.00
19777;BME280;10047;42.490;26.012;2023-08-12T11:49:52;100843.84;;;30.32;100.00
19777;BME280;10047;42.490;26.012;2023-08-12T11:52:18;100795.66;;;30.24;100.00
19777;BME280;10047;42.490;26.012;2023-08-12T11:54:43;100804.41;;;30.42;100.00
19777;BME280;10047;42.490;26.012;2023-08-12T11:57:09;100810.03;;;31.25;100.00
19777;BME280;10047;42.490;26.012;2023-08-12T11:59:35;100818.31;;;31.64;100.00
19777;BME280;10047;42.490;26.012;2023-08-12T12:02:02;100765.31;;;31.25;100.00
19777;BME280;10047;42.490;26.012;2023-08-12T12:04:27;100807.13;;;31.36;100.00
19777;BME280;10047;42.490;26.012;2023-08-12T12:06:53;100816.97;;;31.60;100.00
19777;BME280;10047;42.490;26.012;2023-08-12T12:09:19;100824.63;;;31.28;100.00
19777;BME280;10047;42.490;26.012;2023-08-12T12:11:45;100786.53;;;31.57;100.00
19777;BME280;10047;42.490;26.012;2023-08-12T12:14:11;100814.69;;;31.99;100.00
19777;BME280;10047;42.490;26.012;2023-08-12T12:16:45;100822.00;;;31.28;100.00
19777;BME280;10047;42.490;26.012;2023-08-12T12:19:21;100781.69;;;31.79;100.00
19777;BME280;10047;42.490;26.012;2023-08-12T12:21:49;100791.13;;;32.63;100.00
19777;BME280;10047;42.490;26.012;2023-08-12T12:24:15;100795.38;;;31.90;100.00
19777;BME280;10047;42.490;26.012;2023-08-12T12:26:41;100788.78;;;32.36;100.00
19777;BME280;10047;42.490;26.012;2023-08-12T12:29:06;100761.41;;;31.63;100.00
19777;BME280;10047;42.490;26.012;2023-08-12T12:31:33;100825.91;;;31.16;100.00
19777;BME280;10047;42.490;26.012;2023-08-12T12:34:03;100772.69;;;30.78;100.00